Weather History for Lincoln, CA

Change the Weather History Date:

Friday, May 31, 2013

  Actual Average (KAUN) Record (KAUN)
Temperature  
Mean Temperature 70 °F -  
Max Temperature 95 °F 80 °F 102 °F (1950)
Min Temperature 46 °F 54 °F 40 °F (1971)
Cooling Degree Days 6    
Growing Degree Days 20 (Base 50)    
Moisture  
Dew Point 40 °F    
Average Humidity 40    
Maximum Humidity 81    
Minimum Humidity 12    
Precipitation  
Precipitation 0.00 in - - ()
Sea Level Pressure  
Sea Level Pressure 29.91 in    
Wind  
Wind Speed 5 mph (NNW)    
Max Wind Speed 15 mph    
Max Gust Speed 20 mph    
Visibility 10 miles    
Events      
Averages and records for this station are not official NWS values.
T = Trace of Precipitation, MM = Missing Value Source: NWS Daily Summary

Daily Weather History Graph

Daily Weather History Graph

Search for Another Location

Airport:

Trip Planner

Search our weather history database for the weather conditions in past years. The results will help you decide how hot, cold, wet, or windy it might be!

Date:

Astronomy

May. 31, 2013 Rise Set
Actual Time 5:42 AM PDT 8:24 PM PDT
Civil Twilight 5:10 AM PDT 8:55 PM PDT
Nautical Twilight 4:31 AM PDT 9:35 PM PDT
Astronomical Twilight 3:47 AM PDT 10:19 PM PDT
Moon 1:04 AM PDT (5/31) 1:00 PM PDT (5/31)
Length of Visible Light 15h 45m
Length of Day
14h 42m
Waning Gibbous, 50% of the Moon is Illuminated
May 31
Waning Gibbous
May 31
Last Quarter
Jun 8
New
Jun 16
First Quarter
Jun 23
Full

Hourly Weather History & Observations

Time (PDT) Temp. Windchill Dew Point Humidity Pressure Visibility Wind Dir Wind Speed Gust Speed Precip Events Conditions
12:15 AM 53.6 °F - 42.8 °F 67% 29.93 in 10.0 mi ENE 6.9 mph - N/A   Clear
12:35 AM 57.2 °F - 42.8 °F 59% 29.94 in 10.0 mi Calm Calm - N/A   Clear
12:55 AM 59.0 °F - 41.0 °F 51% 29.93 in 10.0 mi East 5.8 mph - N/A   Clear
1:15 AM 53.6 °F - 41.0 °F 62% 29.93 in 10.0 mi ENE 3.5 mph - N/A   Clear
1:35 AM 53.6 °F - 41.0 °F 62% 29.94 in 10.0 mi NE 4.6 mph - N/A   Clear
1:55 AM 51.8 °F - 41.0 °F 67% 29.94 in 10.0 mi NNE 3.5 mph - N/A   Clear
2:15 AM 55.4 °F - 41.0 °F 58% 29.94 in 10.0 mi Calm Calm - N/A   Clear
2:35 AM 57.2 °F - 41.0 °F 55% 29.94 in 10.0 mi Calm Calm - N/A   Clear
2:55 AM 51.8 °F - 41.0 °F 67% 29.93 in 10.0 mi Calm Calm - N/A   Clear
3:15 AM 50.0 °F - 41.0 °F 71% 29.94 in 10.0 mi Calm Calm - N/A   Clear
3:35 AM 50.0 °F - 41.0 °F 71% 29.94 in 10.0 mi Calm Calm - N/A   Clear
3:55 AM 50.0 °F - 42.8 °F 76% 29.94 in 10.0 mi Calm Calm - N/A   Clear
4:15 AM 50.0 °F - 42.8 °F 76% 29.94 in 10.0 mi Calm Calm - N/A   Clear
4:35 AM 46.4 °F 44.3 °F 41.0 °F 81% 29.94 in 10.0 mi ENE 4.6 mph - N/A   Clear
4:55 AM 46.4 °F 43.5 °F 41.0 °F 81% 29.93 in 10.0 mi ENE 5.8 mph - N/A   Clear
5:15 AM 48.2 °F - 41.0 °F 76% 29.94 in 10.0 mi Calm Calm - N/A   Clear
5:35 AM 50.0 °F - 42.8 °F 76% 29.94 in 10.0 mi Calm Calm - N/A   Clear
5:55 AM 48.2 °F - 41.0 °F 76% 29.95 in 10.0 mi NE 3.5 mph - N/A   Clear
6:15 AM 48.2 °F - 41.0 °F 76% 29.95 in 10.0 mi NNE 3.5 mph - N/A   Clear
6:35 AM 50.0 °F - 42.8 °F 76% 29.96 in 10.0 mi NNE 4.6 mph - N/A   Clear
6:55 AM 51.8 °F - 44.6 °F 76% 29.96 in 10.0 mi Calm Calm - N/A   Clear
7:15 AM 55.4 °F - 44.6 °F 67% 29.96 in 10.0 mi Calm Calm - N/A   Clear
7:35 AM 60.8 °F - 46.4 °F 59% 29.97 in 10.0 mi North 3.5 mph - N/A   Clear
7:55 AM 62.6 °F - 46.4 °F 55% 29.97 in 10.0 mi NNW 4.6 mph - N/A   Clear
8:15 AM 64.4 °F - 44.6 °F 49% 29.97 in 10.0 mi NW 4.6 mph - N/A   Clear
8:35 AM 66.2 °F - 44.6 °F 46% 29.98 in 10.0 mi NW 4.6 mph - N/A   Clear
8:55 AM 68.0 °F - 41.0 °F 37% 29.98 in 10.0 mi NW 6.9 mph - N/A   Clear
9:15 AM 69.8 °F - 41.0 °F 35% 29.98 in 10.0 mi NW 9.2 mph - N/A   Clear
9:35 AM 71.6 °F - 41.0 °F 33% 29.98 in 10.0 mi NW 9.2 mph - N/A   Clear
9:55 AM 73.4 °F - 39.2 °F 29% 29.97 in 10.0 mi NW 11.5 mph 16.1 mph N/A   Clear
10:15 AM 75.2 °F - 41.0 °F 29% 29.97 in 10.0 mi NW 10.4 mph 16.1 mph N/A   Clear
10:35 AM 77.0 °F - 37.4 °F 24% 29.96 in 10.0 mi NNW 12.7 mph - N/A   Clear
10:55 AM 78.8 °F - 39.2 °F 24% 29.96 in 10.0 mi NNW 11.5 mph 17.3 mph N/A   Clear
11:15 AM 80.6 °F - 37.4 °F 21% 29.96 in 10.0 mi NNW 12.7 mph - N/A   Clear
11:35 AM 80.6 °F - 41.0 °F 24% 29.95 in 10.0 mi NNW 10.4 mph - N/A   Clear
11:55 AM 82.4 °F - 41.0 °F 23% 29.95 in 10.0 mi NW 8.1 mph - N/A   Clear
12:15 PM 84.2 °F - 37.4 °F 19% 29.94 in 10.0 mi NNW 13.8 mph 19.6 mph N/A   Clear
12:35 PM 86.0 °F - 39.2 °F 19% 29.94 in 10.0 mi NW 12.7 mph - N/A   Clear
12:55 PM 86.0 °F - 39.2 °F 19% 29.93 in 10.0 mi NNW 9.2 mph 19.6 mph N/A   Clear
1:15 PM 87.8 °F - 37.4 °F 17% 29.93 in 10.0 mi NW 11.5 mph - N/A   Clear
1:35 PM 89.6 °F - 35.6 °F 15% 29.92 in 10.0 mi WNW 11.5 mph 18.4 mph N/A   Clear
1:55 PM 89.6 °F - 35.6 °F 15% 29.92 in 10.0 mi WNW 13.8 mph 19.6 mph N/A   Clear
2:15 PM 89.6 °F - 35.6 °F 15% 29.91 in 10.0 mi NNW 10.4 mph - N/A   Clear
2:35 PM 89.6 °F - 33.8 °F 14% 29.91 in 10.0 mi NW 11.5 mph 18.4 mph N/A   Clear
2:55 PM 89.6 °F - 35.6 °F 15% 29.91 in 10.0 mi NNW 11.5 mph 18.4 mph N/A   Clear
3:15 PM 91.4 °F - 35.6 °F 14% 29.90 in 10.0 mi NW 10.4 mph - N/A   Clear
3:35 PM 91.4 °F - 35.6 °F 14% 29.89 in 10.0 mi NW 9.2 mph 19.6 mph N/A   Clear
3:55 PM 91.4 °F - 33.8 °F 13% 29.88 in 10.0 mi WNW 12.7 mph 18.4 mph N/A   Clear
4:15 PM 91.4 °F - 33.8 °F 13% 29.88 in 10.0 mi WNW 12.7 mph 18.4 mph N/A   Clear
4:35 PM 93.2 °F - 35.6 °F 13% 29.87 in 10.0 mi NW 12.7 mph 19.6 mph N/A   Clear
4:55 PM 95.0 °F - 35.6 °F 12% 29.87 in 10.0 mi NNW 9.2 mph - N/A   Clear
5:15 PM 93.2 °F - 35.6 °F 13% 29.86 in 10.0 mi NNW 10.4 mph 17.3 mph N/A   Clear
5:35 PM 91.4 °F - 37.4 °F 15% 29.86 in 10.0 mi NNW 12.7 mph 17.3 mph N/A   Clear
5:55 PM 91.4 °F - 37.4 °F 15% 29.85 in 10.0 mi NNW 15.0 mph 18.4 mph N/A   Clear
6:15 PM 91.4 °F - 33.8 °F 13% 29.85 in 10.0 mi NW 11.5 mph 17.3 mph N/A   Clear
6:35 PM 91.4 °F - 32.0 °F 12% 29.85 in 10.0 mi NW 11.5 mph 16.1 mph N/A   Clear
6:55 PM 89.6 °F - 33.8 °F 14% 29.85 in 10.0 mi NW 9.2 mph - N/A   Clear
7:15 PM 89.6 °F - 33.8 °F 14% 29.85 in 10.0 mi NW 6.9 mph - N/A   Clear
7:35 PM 87.8 °F - 35.6 °F 16% 29.85 in 10.0 mi WNW 4.6 mph - N/A   Clear
7:55 PM 86.0 °F - 42.8 °F 22% 29.85 in 10.0 mi Calm Calm - N/A   Clear
8:15 PM 84.2 °F - 42.8 °F 23% 29.85 in 10.0 mi Calm Calm - N/A   Clear
8:35 PM 80.6 °F - 42.8 °F 26% 29.85 in 10.0 mi Calm Calm - N/A   Clear
8:55 PM 78.8 °F - 41.0 °F 26% 29.85 in 10.0 mi Calm Calm - N/A   Clear
9:15 PM 78.8 °F - 42.8 °F 28% 29.85 in 10.0 mi Calm Calm - N/A   Clear
9:35 PM 77.0 °F - 42.8 °F 29% 29.86 in 10.0 mi Calm Calm - N/A   Clear
9:55 PM 75.2 °F - 42.8 °F 31% 29.86 in 10.0 mi Calm Calm - N/A   Clear
10:15 PM 64.4 °F - 44.6 °F 49% 29.86 in 10.0 mi East 5.8 mph - N/A   Clear
10:35 PM 62.6 °F - 46.4 °F 55% 29.86 in 10.0 mi East 3.5 mph - N/A   Clear
10:55 PM 62.6 °F - 46.4 °F 55% 29.86 in 10.0 mi East 3.5 mph - N/A   Clear
11:15 PM 64.4 °F - 44.6 °F 49% 29.86 in 10.0 mi East 4.6 mph - N/A   Clear
11:35 PM 62.6 °F - 44.6 °F 52% 29.86 in 10.0 mi East 4.6 mph - N/A   Clear
11:55 PM 62.6 °F - 44.6 °F 52% 29.86 in 10.0 mi East 3.5 mph - N/A   Clear